Time;durP1;ratioP1;P1;durP2;ratioP2;P2;SDS_P1;SDS_P2;PMS_P1;PMS_P2;Temp;Humidity;BMP_temperature;BMP_pressure;BME280_temperature;BME280_humidity;BME280_pressure;Samples;Min_cycle;Max_cycle;Signal;HPM_P1;HPM_P2
2023/07/06 00:02:05;;;;;;;9.25;3.88;;;;;;;22.10;51.83;101170.03;5060107;28;20067;-67
2023/07/06 00:04:35;;;;;;;8.15;3.40;;;;;;;22.08;52.44;101172.41;5092329;28;20052;-67
2023/07/06 00:07:02;;;;;;;8.10;3.25;;;;;;;22.06;52.17;101171.97;5077328;28;20048;-68
2023/07/06 00:09:30;;;;;;;7.78;3.80;;;;;;;21.91;52.46;101172.97;5065494;28;20057;-67
2023/07/06 00:11:57;;;;;;;8.18;3.17;;;;;;;21.81;53.10;101173.59;5083538;28;20075;-67
2023/07/06 00:14:24;;;;;;;9.93;3.38;;;;;;;21.74;53.19;101175.47;5096499;28;20055;-67
2023/07/06 00:17:12;;;;;;;8.63;3.30;;;;;;;21.79;53.13;101181.59;5088561;28;20048;-67
2023/07/06 00:19:40;;;;;;;7.45;3.42;;;;;;;21.66;53.47;101174.56;5076533;28;20059;-67
2023/07/06 00:22:10;;;;;;;11.50;3.45;;;;;;;21.50;53.91;101182.31;5084353;28;20053;-68
2023/07/06 00:24:38;;;;;;;8.05;3.35;;;;;;;21.61;53.84;101174.88;5087014;28;20047;-65
2023/07/06 00:27:06;;;;;;;7.63;3.30;;;;;;;21.76;53.35;101171.09;5055967;28;20055;-67
2023/07/06 00:29:35;;;;;;;9.05;3.50;;;;;;;21.70;53.56;101175.44;5107080;28;20040;-67
2023/07/06 00:32:27;;;;;;;6.82;3.25;;;;;;;21.76;53.18;101173.13;5091570;28;20056;-66
2023/07/06 00:34:55;;;;;;;9.32;3.15;;;;;;;21.75;53.36;101182.69;5074207;28;20044;-66
2023/07/06 00:37:23;;;;;;;6.60;3.25;;;;;;;21.81;53.48;101181.22;5070474;28;20680;-66
2023/07/06 00:39:51;;;;;;;7.57;3.05;;;;;;;21.89;53.12;101191.34;5078090;28;20051;-67
2023/07/06 00:42:20;;;;;;;9.95;3.17;;;;;;;21.66;53.44;101180.16;5076368;28;20052;-65
2023/07/06 00:44:58;;;;;;;6.32;3.10;;;;;;;21.90;52.94;101181.75;5074719;28;20063;-66
2023/07/06 00:47:34;;;;;;;7.68;3.38;;;;;;;21.74;53.37;101186.69;5080038;28;20593;-65
2023/07/06 00:50:07;;;;;;;6.47;3.08;;;;;;;21.78;53.37;101188.38;5076002;28;20048;-65
2023/07/06 00:52:39;;;;;;;8.15;3.60;;;;;;;21.64;53.85;101190.94;5072382;28;20672;-67
2023/07/06 00:55:08;;;;;;;6.45;2.92;;;;;;;21.64;54.04;101185.34;5076315;28;20048;-66
2023/07/06 00:57:38;;;;;;;8.85;3.53;;;;;;;21.80;53.45;101186.03;5077221;28;20064;-66
2023/07/06 01:00:07;;;;;;;6.15;3.05;;;;;;;21.80;53.37;101194.44;5076664;28;20419;-66
2023/07/06 01:02:38;;;;;;;7.28;3.05;;;;;;;21.83;53.26;101196.47;5070317;28;20673;-68
2023/07/06 01:05:07;;;;;;;6.40;3.00;;;;;;;21.78;53.08;101199.59;5072234;28;20053;-67
2023/07/06 01:07:36;;;;;;;6.38;3.00;;;;;;;21.76;53.33;101192.75;5084287;28;20051;-66
2023/07/06 01:10:05;;;;;;;7.53;3.10;;;;;;;21.68;53.69;101197.44;5085078;28;20060;-67
2023/07/06 01:12:33;;;;;;;9.57;3.60;;;;;;;21.76;53.60;101187.13;5055484;28;20061;-66
2023/07/06 01:15:01;;;;;;;6.75;3.47;;;;;;;21.83;53.35;101193.66;5074109;28;20056;-66
2023/07/06 01:17:35;;;;;;;5.43;2.80;;;;;;;21.85;53.09;101194.09;5057925;28;20428;-65
2023/07/06 01:20:14;;;;;;;8.00;3.10;;;;;;;21.96;52.96;101195.09;5089138;28;20045;-67
2023/07/06 01:23:09;;;;;;;7.47;3.00;;;;;;;21.89;53.15;101189.38;5065708;28;20407;-67
2023/07/06 01:25:51;;;;;;;6.72;3.10;;;;;;;21.80;53.39;101186.03;5094240;28;20060;-67
2023/07/06 01:28:37;;;;;;;9.18;3.17;;;;;;;21.74;53.76;101192.31;5066558;28;20052;-69
2023/07/06 01:31:27;;;;;;;8.43;3.15;;;;;;;21.69;53.44;101199.03;5071383;28;20053;-68
2023/07/06 01:34:02;;;;;;;6.75;3.00;;;;;;;21.68;54.10;101199.41;5101548;28;20148;-68
2023/07/06 01:36:54;;;;;;;7.57;3.10;;;;;;;21.75;53.70;101188.31;5089221;28;20052;-68
2023/07/06 01:39:26;;;;;;;7.50;3.20;;;;;;;21.66;54.24;101194.19;5088646;28;20059;-67
2023/07/06 01:42:14;;;;;;;6.97;3.05;;;;;;;21.73;54.26;101190.66;5073437;28;20056;-67
2023/07/06 01:44:46;;;;;;;6.78;2.78;;;;;;;21.70;54.55;101189.44;5072880;28;20045;-66
2023/07/06 01:47:14;;;;;;;5.60;3.00;;;;;;;21.85;54.19;101182.06;5075894;28;20049;-66
2023/07/06 01:49:42;;;;;;;7.93;3.15;;;;;;;;;;5075786;28;20514;-66
2023/07/06 01:52:27;;;;;;;6.40;2.97;;;;;;;21.75;54.29;101183.50;5075015;28;20084;-66
2023/07/06 01:55:27;;;;;;;6.13;2.63;;;;;;;21.70;54.40;101178.22;5072711;28;20641;-66
2023/07/06 01:58:04;;;;;;;7.23;2.97;;;;;;;21.68;54.77;101174.19;5078380;28;20399;-66
2023/07/06 02:00:34;;;;;;;10.60;3.13;;;;;;;21.57;55.03;101174.00;5093720;28;20286;-67
2023/07/06 02:03:05;;;;;;;7.70;2.97;;;;;;;21.52;54.88;101182.75;5076377;28;20059;-67
2023/07/06 02:05:36;;;;;;;8.13;3.10;;;;;;;21.56;55.04;101175.19;5060046;28;20109;-67
2023/07/06 02:08:08;;;;;;;9.77;3.70;;;;;;;21.59;54.97;101182.84;5089415;28;20276;-67
2023/07/06 02:10:35;;;;;;;9.23;3.40;;;;;;;21.61;54.94;101180.50;5071963;28;20059;-67
2023/07/06 02:13:03;;;;;;;6.07;2.60;;;;;;;21.59;55.38;101176.44;5073341;28;20419;-67
2023/07/06 02:15:31;;;;;;;10.88;3.35;;;;;;;21.65;54.80;101174.94;5082201;28;20557;-67
2023/07/06 02:17:58;;;;;;;7.55;3.30;;;;;;;21.57;55.11;101168.41;5072506;28;20040;-66
2023/07/06 02:20:26;;;;;;;7.53;2.70;;;;;;;21.52;55.30;101160.31;5073093;28;20059;-66
2023/07/06 02:22:53;;;;;;;6.75;2.63;;;;;;;21.40;55.48;101154.91;5089162;28;20044;-61
2023/07/06 02:25:21;;;;;;;7.47;3.38;;;;;;;21.41;55.75;101166.94;5073194;28;20049;-57
2023/07/06 02:27:48;;;;;;;6.32;2.88;;;;;;;21.54;55.15;101168.34;5068503;28;20376;-59
2023/07/06 02:30:16;;;;;;;7.53;3.03;;;;;;;21.57;54.91;101168.41;5054474;28;20052;-58
2023/07/06 02:32:44;;;;;;;8.18;3.20;;;;;;;21.60;55.00;101166.84;5053080;28;20053;-58
2023/07/06 02:35:12;;;;;;;6.40;2.90;;;;;;;21.47;54.98;101166.25;5054879;28;20064;-59
2023/07/06 02:37:39;;;;;;;8.57;3.20;;;;;;;21.43;55.67;101167.38;5068609;28;20040;-59
2023/07/06 02:40:13;;;;;;;6.53;2.95;;;;;;;21.45;55.31;101173.41;5087454;28;20044;-59
2023/07/06 02:42:41;;;;;;;6.57;3.25;;;;;;;21.55;55.20;101165.16;5074001;28;20528;-58
2023/07/06 02:45:10;;;;;;;7.38;3.13;;;;;;;21.44;54.91;101171.78;5059472;28;20041;-58
2023/07/06 02:47:38;;;;;;;7.22;3.17;;;;;;;21.37;55.60;101183.69;5071238;28;20041;-58
2023/07/06 02:50:10;;;;;;;6.18;2.88;;;;;;;21.35;55.71;101182.44;5072841;28;20496;-59
2023/07/06 02:52:42;;;;;;;5.15;2.60;;;;;;;21.33;56.02;101182.81;5053751;28;20056;-58
2023/07/06 02:55:09;;;;;;;8.10;3.00;;;;;;;21.37;55.29;101177.28;5055323;28;20052;-59
2023/07/06 02:57:40;;;;;;;7.03;2.90;;;;;;;21.53;55.39;101187.16;5076627;28;20342;-60
2023/07/06 03:00:12;;;;;;;6.28;2.95;;;;;;;21.54;55.19;101182.34;5078046;28;20052;-58
2023/07/06 03:02:40;;;;;;;5.93;2.88;;;;;;;21.60;54.91;101186.47;5073812;28;20044;-60
2023/07/06 03:05:08;;;;;;;8.18;2.90;;;;;;;21.60;55.15;101186.47;5072046;28;20480;-60
2023/07/06 03:07:35;;;;;;;7.43;3.03;;;;;;;21.55;55.37;101196.00;5072790;28;20051;-60
2023/07/06 03:10:04;;;;;;;8.90;3.00;;;;;;;21.55;54.91;101196.00;5072274;28;20045;-60
2023/07/06 03:12:37;;;;;;;6.60;2.88;;;;;;;21.50;55.40;101189.91;5071899;28;20063;-60
2023/07/06 03:15:06;;;;;;;5.97;3.00;;;;;;;21.50;55.17;101189.91;5089197;28;20052;-59
2023/07/06 03:17:33;;;;;;;7.97;3.00;;;;;;;21.48;55.59;101186.69;5089161;28;20055;-60
2023/07/06 03:20:01;;;;;;;6.82;2.90;;;;;;;21.53;54.94;101189.94;5070939;28;20059;-63
2023/07/06 03:22:31;;;;;;;9.55;3.30;;;;;;;21.50;55.49;101187.09;5105686;28;20040;-60
2023/07/06 03:24:59;;;;;;;6.20;2.80;;;;;;;21.50;55.39;101187.09;5071870;28;20061;-59
2023/07/06 03:27:26;;;;;;;7.35;2.72;;;;;;;21.49;55.50;101185.47;5070975;28;20056;-57
2023/07/06 03:29:54;;;;;;;8.35;2.88;;;;;;;21.40;55.70;101180.13;5053386;28;20060;-59
2023/07/06 03:32:21;;;;;;;7.30;2.85;;;;;;;21.32;56.11;101180.41;5082932;28;20040;-59
2023/07/06 03:34:49;;;;;;;11.35;2.90;;;;;;;21.27;56.03;101187.09;5080680;28;20044;-58
2023/07/06 03:37:18;;;;;;;9.45;3.28;;;;;;;21.38;56.17;101188.09;5079588;28;20059;-60
2023/07/06 03:39:47;;;;;;;6.35;2.72;;;;;;;21.40;55.78;101185.75;5092063;28;20066;-59
2023/07/06 03:42:16;;;;;;;8.30;2.72;;;;;;;21.46;55.42;101184.25;5082685;28;20051;-59
2023/07/06 03:44:45;;;;;;;6.15;2.85;;;;;;;21.47;55.55;101185.88;5071867;28;20059;-59
2023/07/06 03:47:14;;;;;;;8.95;3.00;;;;;;;21.41;55.41;101192.97;5073334;28;20049;-59
2023/07/06 03:49:41;;;;;;;6.25;2.60;;;;;;;21.44;55.32;101192.22;5067119;28;20698;-60
2023/07/06 03:52:09;;;;;;;7.63;3.17;;;;;;;21.31;55.99;101193.59;5068967;28;20059;-59
2023/07/06 03:54:36;;;;;;;7.90;3.03;;;;;;;21.32;56.11;101197.22;5052031;28;20053;-59
2023/07/06 03:57:05;;;;;;;11.05;3.10;;;;;;;21.43;55.62;101187.78;5052388;28;20520;-61
2023/07/06 03:59:33;;;;;;;6.45;2.95;;;;;;;21.39;55.97;101191.72;5105640;28;20044;-57
2023/07/06 04:02:01;;;;;;;7.18;3.10;;;;;;;21.39;56.31;101192.53;5073184;28;20056;-59
2023/07/06 04:04:28;;;;;;;6.80;3.30;;;;;;;21.54;55.42;101191.59;5072082;28;20064;-61
2023/07/06 04:06:55;;;;;;;5.78;2.83;;;;;;;21.53;55.50;101184.34;5073106;28;20048;-59
2023/07/06 04:09:25;;;;;;;5.75;3.05;;;;;;;21.44;55.79;101189.44;5068592;28;20053;-60
2023/07/06 04:11:52;;;;;;;7.73;2.80;;;;;;;21.45;55.53;101184.59;5051793;28;20068;-59
2023/07/06 04:14:24;;;;;;;7.13;3.10;;;;;;;21.43;55.91;101187.78;5037720;28;20287;-59
2023/07/06 04:16:52;;;;;;;7.13;3.00;;;;;;;21.36;55.81;101182.06;5070704;28;20060;-59
2023/07/06 04:19:20;;;;;;;7.35;3.20;;;;;;;21.36;55.95;101187.66;5038553;28;20091;-59
2023/07/06 04:21:47;;;;;;;8.15;2.70;;;;;;;21.39;55.94;101186.94;5073060;28;20063;-59
2023/07/06 04:24:16;;;;;;;5.35;2.65;;;;;;;21.41;55.94;101190.16;5053461;28;20052;-60
2023/07/06 04:26:47;;;;;;;6.95;2.42;;;;;;;21.46;55.77;101189.88;5073102;28;20060;-59
2023/07/06 04:29:14;;;;;;;7.60;3.00;;;;;;;21.48;55.90;101193.06;5075009;28;20480;-59
2023/07/06 04:31:42;;;;;;;5.45;2.50;;;;;;;21.43;55.68;101190.59;5076424;28;20511;-59
2023/07/06 04:34:09;;;;;;;7.88;3.05;;;;;;;21.31;56.03;101188.00;5076614;28;20064;-59
2023/07/06 04:36:39;;;;;;;6.75;2.85;;;;;;;21.21;55.68;101191.41;5075324;28;20052;-60
2023/07/06 04:39:08;;;;;;;6.10;3.10;;;;;;;21.18;56.55;101190.16;5113961;27;20049;-59
2023/07/06 04:41:35;;;;;;;7.32;3.08;;;;;;;21.26;56.19;101191.09;5078234;28;20412;-59
2023/07/06 04:44:02;;;;;;;8.80;2.97;;;;;;;21.20;56.12;101204.63;5075127;28;20060;-60
2023/07/06 04:46:30;;;;;;;6.30;3.20;;;;;;;21.23;56.69;101200.28;5074328;28;20078;-60
2023/07/06 04:48:57;;;;;;;7.30;3.03;;;;;;;21.27;56.16;101201.13;5096355;28;20562;-59
2023/07/06 04:51:25;;;;;;;6.18;2.80;;;;;;;21.35;56.21;101197.28;5094924;28;20059;-59
2023/07/06 04:53:52;;;;;;;8.40;3.28;;;;;;;21.38;56.09;101204.94;5096741;28;20059;-58
2023/07/06 04:56:21;;;;;;;7.55;3.25;;;;;;;21.43;55.96;101204.59;5077158;28;20725;-61
2023/07/06 04:58:49;;;;;;;8.20;2.75;;;;;;;21.49;55.56;101199.50;5086616;28;20043;-61
2023/07/06 05:01:16;;;;;;;5.68;2.65;;;;;;;21.35;56.23;101207.66;5093590;28;20059;-58
2023/07/06 05:03:44;;;;;;;6.55;3.03;;;;;;;21.37;55.72;101199.69;5096296;28;20078;-59
2023/07/06 05:06:12;;;;;;;6.82;3.13;;;;;;;21.32;55.86;101200.00;5077420;28;20052;-59
2023/07/06 05:08:43;;;;;;;8.23;3.05;;;;;;;21.38;55.64;101198.50;5074301;28;20048;-58
2023/07/06 05:11:11;;;;;;;7.82;3.22;;;;;;;21.37;55.88;101206.13;5095828;28;20154;-58
2023/07/06 05:13:38;;;;;;;8.93;3.00;;;;;;;21.37;56.01;101210.91;5070643;28;20057;-58
2023/07/06 05:16:05;;;;;;;6.03;3.00;;;;;;;21.46;55.54;101201.06;5055911;28;20049;-60
2023/07/06 05:18:33;;;;;;;7.70;3.25;;;;;;;21.23;55.65;101209.47;5055607;28;20060;-60
2023/07/06 05:21:00;;;;;;;11.65;3.67;;;;;;;21.26;56.19;101210.72;5055748;28;20064;-58
2023/07/06 05:23:28;;;;;;;10.85;3.30;;;;;;;21.38;55.68;101209.72;5090926;28;20052;-58
2023/07/06 05:26:00;;;;;;;8.88;3.50;;;;;;;21.31;56.03;101204.81;5075959;28;20060;-60
2023/07/06 05:28:29;;;;;;;7.38;3.33;;;;;;;21.40;55.80;101207.34;5070327;28;20052;-60
2023/07/06 05:30:57;;;;;;;6.25;3.08;;;;;;;21.53;55.44;101208.78;5054921;28;20049;-60
2023/07/06 05:33:25;;;;;;;8.25;3.17;;;;;;;21.56;55.65;101213.63;5054302;28;20048;-59
2023/07/06 05:35:52;;;;;;;6.63;2.83;;;;;;;21.67;55.21;101207.00;5083894;28;20044;-59
2023/07/06 05:38:20;;;;;;;8.70;3.53;;;;;;;21.72;54.80;101220.72;5094961;28;20059;-59
2023/07/06 05:40:47;;;;;;;7.00;3.15;;;;;;;21.65;55.27;101215.00;5095511;28;20154;-61
2023/07/06 05:43:19;;;;;;;9.25;3.40;;;;;;;21.73;55.37;101208.31;5077717;28;20044;-60
2023/07/06 05:45:47;;;;;;;7.13;3.38;;;;;;;21.73;55.21;101211.13;5065241;28;20059;-59
2023/07/06 05:48:14;;;;;;;8.93;3.58;;;;;;;21.70;55.37;101216.66;5085455;28;20045;-60
2023/07/06 05:50:42;;;;;;;9.80;3.22;;;;;;;21.77;54.95;101211.19;5073352;28;20045;-60
2023/07/06 05:53:09;;;;;;;7.30;3.47;;;;;;;21.76;55.13;101210.34;5071511;28;20525;-61
2023/07/06 05:55:37;;;;;;;7.30;2.92;;;;;;;21.83;55.14;101213.31;5087554;28;20056;-59
2023/07/06 05:58:04;;;;;;;6.18;3.00;;;;;;;21.88;54.93;101212.97;5066727;28;20067;-60
2023/07/06 06:00:36;;;;;;;8.70;3.53;;;;;;;21.87;54.50;101218.97;5071207;28;20033;-59
2023/07/06 06:03:04;;;;;;;9.63;4.40;;;;;;;21.75;55.07;101222.78;5080571;28;20047;-58
2023/07/06 06:05:33;;;;;;;12.48;3.80;;;;;;;21.81;55.06;101218.47;5077527;28;20045;-59
2023/07/06 06:08:03;;;;;;;9.98;3.47;;;;;;;21.76;55.26;101218.78;5083428;28;20044;-61
2023/07/06 06:10:31;;;;;;;11.95;4.13;;;;;;;21.73;55.85;101224.31;5067279;28;20055;-60
2023/07/06 06:12:58;;;;;;;9.27;4.30;;;;;;;21.76;55.40;101226.41;5071742;28;20057;-59
2023/07/06 06:15:27;;;;;;;10.35;4.45;;;;;;;21.40;55.84;101227.78;5073932;28;20458;-57
2023/07/06 06:17:54;;;;;;;10.90;5.13;;;;;;;21.46;55.73;101237.53;5085799;28;20075;-59
2023/07/06 06:20:22;;;;;;;15.38;7.13;;;;;;;21.40;55.74;101236.19;5078295;28;20466;-60
2023/07/06 06:22:51;;;;;;;16.73;9.20;;;;;;;21.53;55.31;101232.00;5084756;28;20048;-58
2023/07/06 06:25:18;;;;;;;11.55;7.22;;;;;;;21.62;54.64;101228.97;5082494;28;20056;-58
2023/07/06 06:27:46;;;;;;;9.20;4.82;;;;;;;21.70;53.93;101231.50;5080903;28;20055;-59
2023/07/06 06:30:15;;;;;;;12.90;5.10;;;;;;;21.87;53.31;101233.00;5079316;28;20039;-59
2023/07/06 06:32:43;;;;;;;19.45;9.50;;;;;;;21.81;53.42;101240.91;5089093;28;20039;-59
2023/07/06 06:35:21;;;;;;;12.60;5.90;;;;;;;21.48;54.04;101237.13;5089039;28;20047;-58
2023/07/06 06:37:48;;;;;;;10.10;5.55;;;;;;;21.39;54.60;101237.41;5086157;28;20056;-61
2023/07/06 06:40:17;;;;;;;12.93;5.90;;;;;;;21.23;53.81;101245.09;5089400;28;20048;-62
2023/07/06 06:42:45;;;;;;;13.65;5.75;;;;;;;20.32;58.52;101241.22;5059609;28;20041;-58
2023/07/06 06:45:12;;;;;;;18.60;6.90;;;;;;;20.81;60.67;101227.44;5077992;28;20056;-60
2023/07/06 06:47:39;;;;;;;15.48;6.47;;;;;;;20.25;56.93;101246.66;5083346;28;20434;-61
2023/07/06 06:50:08;;;;;;;20.48;9.20;;;;;;;20.78;61.62;101245.00;5086671;28;20518;-59
2023/07/06 06:52:36;;;;;;;18.45;7.32;;;;;;;21.17;60.86;101241.78;5076194;28;20056;-60
2023/07/06 06:55:03;;;;;;;16.70;6.78;;;;;;;21.75;58.13;101238.78;5080810;28;20048;-60
2023/07/06 06:57:31;;;;;;;14.32;6.95;;;;;;;21.76;56.31;101246.81;5079407;28;20606;-60
2023/07/06 06:59:59;;;;;;;15.40;6.97;;;;;;;21.66;56.51;101241.03;5084099;28;20044;-60
2023/07/06 07:02:28;;;;;;;13.80;6.70;;;;;;;21.92;55.83;101253.13;5068667;28;20041;-61
2023/07/06 07:04:59;;;;;;;16.40;5.28;;;;;;;21.42;53.67;101253.47;5048483;28;20055;-60
2023/07/06 07:07:27;;;;;;;16.67;7.05;;;;;;;20.97;55.49;101258.97;5076790;28;20045;-58
2023/07/06 07:09:54;;;;;;;17.70;10.27;;;;;;;20.38;56.72;101255.72;5067718;28;20050;-59
2023/07/06 07:12:21;;;;;;;13.05;6.00;;;;;;;21.15;56.77;101258.16;5063924;28;20678;-61
2023/07/06 07:14:49;;;;;;;11.98;5.85;;;;;;;21.55;55.97;101257.66;5072190;28;20054;-61
2023/07/06 07:17:16;;;;;;;13.57;6.00;;;;;;;21.89;54.14;101253.88;5062527;28;20100;-60
2023/07/06 07:19:43;;;;;;;14.10;6.53;;;;;;;21.85;54.17;101255.00;5098383;28;20057;-60
2023/07/06 07:22:15;;;;;;;13.00;5.93;;;;;;;21.71;55.08;101255.56;5069869;28;20044;-59
2023/07/06 07:24:47;;;;;;;16.20;6.20;;;;;;;21.92;54.71;101246.69;5068543;28;20055;-61
2023/07/06 07:27:14;;;;;;;12.57;5.78;;;;;;;21.82;54.74;101241.72;5067277;28;20048;-60
2023/07/06 07:29:46;;;;;;;12.02;5.70;;;;;;;22.01;53.57;101238.81;5074131;28;20052;-61
2023/07/06 07:32:14;;;;;;;13.52;5.18;;;;;;;21.90;53.10;101246.25;5078713;28;20063;-59
2023/07/06 07:34:43;;;;;;;13.98;5.63;;;;;;;22.30;52.60;101240.84;5071521;28;20060;-59
2023/07/06 07:37:14;;;;;;;16.55;6.00;;;;;;;22.58;52.30;101237.66;5072154;28;20063;-60
2023/07/06 07:39:41;;;;;;;13.13;4.82;;;;;;;22.83;51.15;101235.94;5080662;28;20044;-60
2023/07/06 07:42:10;;;;;;;19.13;5.95;;;;;;;23.02;49.78;101232.97;5069939;28;20071;-62
2023/07/06 07:44:37;;;;;;;9.27;4.97;;;;;;;23.18;48.59;101236.34;5070146;28;20578;-62
2023/07/06 07:47:05;;;;;;;14.68;4.88;;;;;;;23.32;48.06;101228.91;5069590;28;20044;-61
2023/07/06 07:49:32;;;;;;;16.67;5.40;;;;;;;22.70;49.14;101235.38;5067032;28;20051;-61
2023/07/06 07:52:00;;;;;;;13.60;5.25;;;;;;;22.57;49.05;101238.84;5077527;28;20075;-61
2023/07/06 07:54:28;;;;;;;12.07;5.18;;;;;;;22.90;48.69;101233.22;5063959;28;20044;-61
2023/07/06 07:56:56;;;;;;;11.23;5.28;;;;;;;23.09;47.70;101225.41;5073077;28;20361;-62
2023/07/06 07:59:23;;;;;;;18.65;5.40;;;;;;;22.10;49.33;101231.78;5077402;28;20056;-61
2023/07/06 08:01:51;;;;;;;14.40;5.13;;;;;;;22.85;48.18;101231.59;5067872;28;20053;-63
2023/07/06 08:04:20;;;;;;;14.27;4.97;;;;;;;22.77;48.23;101229.06;5080106;28;20051;-63
2023/07/06 08:06:47;;;;;;;12.90;5.57;;;;;;;22.96;47.89;101226.09;5074474;28;20297;-60
2023/07/06 08:09:14;;;;;;;12.88;5.10;;;;;;;23.09;47.62;101233.03;5100560;28;20608;-61
2023/07/06 08:11:45;;;;;;;13.73;5.00;;;;;;;23.06;46.95;101219.75;5072652;28;20048;-61
2023/07/06 08:14:13;;;;;;;12.13;4.03;;;;;;;23.45;46.23;101220.97;5061141;28;20044;-61
2023/07/06 08:16:40;;;;;;;10.88;4.03;;;;;;;23.54;45.84;101215.03;5079236;28;20056;-61
2023/07/06 08:19:08;;;;;;;10.55;4.05;;;;;;;23.82;44.94;101223.69;5076168;28;20048;-61
2023/07/06 08:21:55;;;;;;;16.45;6.68;;;;;;;23.36;45.78;101214.88;5076052;28;20044;-61
2023/07/06 08:24:38;;;;;;;47.35;41.95;;;;;;;23.71;45.14;101217.19;5076117;28;20063;-62
2023/07/06 08:27:05;;;;;;;10.13;5.03;;;;;;;23.93;44.49;101213.31;5071574;28;20032;-62
2023/07/06 08:29:33;;;;;;;13.45;4.13;;;;;;;24.04;43.79;101203.75;5073760;28;21641;-61
2023/07/06 08:32:00;;;;;;;11.10;3.63;;;;;;;24.05;43.84;101201.75;5066398;28;20704;-62
2023/07/06 08:34:27;;;;;;;12.75;4.30;;;;;;;23.87;43.82;101206.44;5073830;28;20652;-61
2023/07/06 08:36:55;;;;;;;10.18;4.90;;;;;;;23.32;45.09;101206.41;5080036;28;20056;-62
2023/07/06 08:39:25;;;;;;;11.13;3.65;;;;;;;23.63;44.97;101210.69;5074947;28;20044;-62
2023/07/06 08:41:53;;;;;;;8.93;3.63;;;;;;;23.39;44.85;101200.03;5073550;28;20045;-59
2023/07/06 08:44:24;;;;;;;8.52;3.40;;;;;;;23.43;45.23;101198.06;5073653;28;20052;-61
2023/07/06 08:46:55;;;;;;;11.65;4.35;;;;;;;23.26;44.44;101199.47;5072414;28;20055;-61
2023/07/06 08:49:33;;;;;;;16.10;3.90;;;;;;;23.16;46.08;101210.63;5074535;28;20044;-61
2023/07/06 08:52:05;;;;;;;16.02;4.78;;;;;;;23.57;45.18;101208.63;5079611;28;20637;-60
2023/07/06 08:54:36;;;;;;;12.55;4.43;;;;;;;23.80;44.68;101201.56;5074673;28;20115;-60
2023/07/06 08:57:13;;;;;;;10.18;3.22;;;;;;;23.83;44.45;101206.44;5068859;28;20040;-61
2023/07/06 08:59:48;;;;;;;11.77;3.20;;;;;;;24.11;43.78;101212.25;5070723;28;20048;-61
2023/07/06 09:02:26;;;;;;;8.15;3.38;;;;;;;24.08;43.45;101217.84;5048833;28;20052;-61
2023/07/06 09:04:56;;;;;;;9.38;4.10;;;;;;;24.18;42.93;101212.28;5051072;28;20060;-61
2023/07/06 09:07:34;;;;;;;12.05;3.55;;;;;;;24.14;43.68;101210.66;5082690;28;20045;-61
2023/07/06 09:10:11;;;;;;;12.73;3.30;;;;;;;24.12;43.29;101213.88;5076812;28;20602;-61
2023/07/06 09:12:54;;;;;;;8.07;3.00;;;;;;;23.92;43.47;101215.31;5076292;28;20062;-61
2023/07/06 09:15:30;;;;;;;9.15;3.47;;;;;;;23.50;44.18;101214.19;5065169;28;20052;-60
2023/07/06 09:18:02;;;;;;;9.80;3.67;;;;;;;23.32;44.66;101214.03;5049557;28;20056;-61
2023/07/06 09:20:32;;;;;;;13.43;3.15;;;;;;;23.71;45.32;101217.19;5067301;28;20056;-61
2023/07/06 09:23:02;;;;;;;10.43;3.50;;;;;;;23.74;45.14;101214.41;5062529;28;20048;-61
2023/07/06 09:25:42;;;;;;;8.32;3.20;;;;;;;23.98;44.80;101216.56;5064588;28;20048;-61
2023/07/06 09:28:18;;;;;;;10.75;3.33;;;;;;;23.92;43.45;101223.75;5080068;28;20067;-62
2023/07/06 09:30:48;;;;;;;9.70;4.30;;;;;;;23.12;46.21;101215.38;5072921;28;20526;-61
2023/07/06 09:33:23;;;;;;;8.18;3.45;;;;;;;23.44;45.50;101213.72;5064901;28;20048;-60
2023/07/06 09:35:53;;;;;;;12.82;3.38;;;;;;;23.76;45.10;101209.19;5071285;28;20506;-61
2023/07/06 09:38:21;;;;;;;;;;;;;;;23.93;44.64;101211.31;5078778;28;20052;-61
2023/07/06 09:40:49;;;;;;;8.55;3.60;;;;;;;23.98;44.59;101204.50;5064938;28;19924;-57
2023/07/06 09:43:29;;;;;;;7.93;3.15;;;;;;;24.13;44.93;101214.69;5064259;28;20052;-61
2023/07/06 09:45:59;;;;;;;9.73;3.20;;;;;;;24.35;44.23;101207.97;5072584;28;20049;-59
2023/07/06 09:48:36;;;;;;;9.35;3.75;;;;;;;24.24;44.65;101207.09;5067165;28;20053;-60
2023/07/06 09:51:13;;;;;;;10.35;3.55;;;;;;;24.28;44.65;101208.75;5079325;28;20052;-61
2023/07/06 09:53:48;;;;;;;8.27;3.30;;;;;;;24.39;44.13;101206.78;5049427;28;20041;-58
2023/07/06 09:56:16;;;;;;;8.75;3.40;;;;;;;23.61;45.14;101203.81;5072566;28;20059;-61
2023/07/06 09:58:45;;;;;;;11.68;4.32;;;;;;;23.48;45.03;101206.16;5066535;28;20044;-58
2023/07/06 10:01:34;;;;;;;11.90;3.83;;;;;;;23.57;45.71;101200.19;5102960;28;20055;-60
2023/07/06 10:04:13;;;;;;;10.02;3.53;;;;;;;23.56;46.03;101202.19;5094936;27;20055;-60
2023/07/06 10:07:06;;;;;;;9.00;3.38;;;;;;;23.66;44.69;101204.25;5073293;28;20041;-60
2023/07/06 10:09:59;;;;;;;7.90;3.17;;;;;;;23.30;42.99;101199.53;5068471;28;20041;-61
2023/07/06 10:12:39;;;;;;;7.78;3.63;;;;;;;23.72;44.96;101205.53;5068900;28;20048;-62
2023/07/06 10:15:35;;;;;;;8.55;3.20;;;;;;;24.02;44.61;101200.56;5072907;28;20399;-61
2023/07/06 10:18:08;;;;;;;8.95;3.22;;;;;;;23.78;44.80;101203.94;5072924;28;20416;-61
2023/07/06 10:20:47;;;;;;;9.48;3.28;;;;;;;24.18;43.63;101191.78;5073702;28;20127;-60
2023/07/06 10:23:28;;;;;;;9.10;3.08;;;;;;;24.29;43.81;101187.00;5099306;27;20060;-60
2023/07/06 10:26:26;;;;;;;16.05;7.20;;;;;;;24.21;41.96;101191.81;5066291;28;20674;-61
2023/07/06 10:29:00;;;;;;;10.40;4.75;;;;;;;24.56;42.78;101193.16;5071912;28;20060;-61
2023/07/06 10:32:04;;;;;;;12.65;3.47;;;;;;;24.56;41.61;101188.34;5067512;28;20055;-61
2023/07/06 10:34:44;;;;;;;7.65;2.90;;;;;;;24.58;42.95;101190.75;5070758;28;20052;-61
2023/07/06 10:37:14;;;;;;;11.60;3.60;;;;;;;24.19;41.15;101196.22;5069802;28;20036;-60
2023/07/06 10:39:44;;;;;;;11.38;3.78;;;;;;;23.82;42.58;101193.53;5069793;28;20297;-61
2023/07/06 10:42:27;;;;;;;7.15;3.33;;;;;;;24.18;43.59;101195.41;5072595;28;21396;-62
2023/07/06 10:45:02;;;;;;;9.02;3.15;;;;;;;24.19;41.67;101185.78;5072644;28;20484;-58
2023/07/06 10:47:38;;;;;;;10.82;3.28;;;;;;;23.30;42.52;101189.13;5070704;28;20048;-63
2023/07/06 10:50:08;;;;;;;7.97;3.10;;;;;;;23.75;43.80;101189.84;5067285;28;20051;-61
2023/07/06 10:52:37;;;;;;;;;;;;;;;23.67;43.38;101188.22;5074111;28;20048;-60
2023/07/06 10:55:24;;;;;;;9.02;4.05;;;;;;;23.85;43.12;101187.13;5071250;28;19935;-63
2023/07/06 10:57:57;;;;;;;7.50;3.88;;;;;;;24.28;42.52;101185.41;5071415;28;20060;-62
2023/07/06 11:00:35;;;;;;;8.65;3.63;;;;;;;24.44;41.83;101188.72;5074076;28;20049;-64
2023/07/06 11:03:04;;;;;;;20.70;11.30;;;;;;;24.35;40.30;101179.81;5069030;28;20453;-64
2023/07/06 11:05:36;;;;;;;10.52;5.53;;;;;;;24.34;40.81;101179.00;5101398;28;20055;-60
2023/07/06 11:08:10;;;;;;;11.50;5.60;;;;;;;23.72;41.90;101176.59;5074337;28;20060;-62
2023/07/06 11:10:48;;;;;;;13.32;6.25;;;;;;;23.73;42.58;101181.03;5067429;28;20078;-60
2023/07/06 11:13:19;;;;;;;12.90;4.82;;;;;;;23.94;41.49;101178.31;5069229;28;20569;-63
2023/07/06 11:15:51;;;;;;;10.52;4.30;;;;;;;24.04;42.53;101172.00;5070207;28;20059;-60
2023/07/06 11:18:18;;;;;;;12.88;4.25;;;;;;;24.26;43.59;101177.34;5077037;28;20044;-62
2023/07/06 11:20:51;;;;;;;9.40;3.97;;;;;;;23.81;38.41;101171.44;5050892;28;20551;-60
2023/07/06 11:23:41;;;;;;;13.55;4.00;;;;;;;23.46;43.23;101169.16;5069877;28;20052;-61
2023/07/06 11:26:20;;;;;;;13.07;4.73;;;;;;;23.64;42.00;101166.50;5077001;28;20040;-60
2023/07/06 11:28:48;;;;;;;11.07;3.97;;;;;;;24.16;43.82;101169.66;5093714;28;20299;-60
2023/07/06 11:31:24;;;;;;;9.23;4.15;;;;;;;24.48;43.04;101155.72;5088430;28;20048;-60
2023/07/06 11:34:28;;;;;;;12.95;4.75;;;;;;;24.80;44.16;101151.03;5070459;28;20063;-57
2023/07/06 11:37:16;;;;;;;17.40;4.40;;;;;;;24.47;40.35;101154.94;5065560;28;20052;-60
2023/07/06 11:40:19;;;;;;;13.48;5.43;;;;;;;24.58;39.76;101156.97;5076262;28;20063;-60
2023/07/06 11:43:19;;;;;;;10.63;4.03;;;;;;;24.71;42.09;101155.41;5072238;28;20048;-61
2023/07/06 11:46:05;;;;;;;18.55;4.93;;;;;;;24.87;40.61;101156.66;5100780;28;20151;-62